Time;durP1;ratioP1;P1;durP2;ratioP2;P2;SDS_P1;SDS_P2;PMS_P1;PMS_P2;Temp;Humidity;BMP_temperature;BMP_pressure;BME280_temperature;BME280_humidity;BME280_pressure;Samples;Min_cycle;Max_cycle;Signal;HPM_P1;HPM_P2
2021/06/24 00:02:00;;;;;;;1.20;1.10;;;;;;;19.40;87.69;95809.84;4980078;28;20204;-85
2021/06/24 00:04:28;;;;;;;2.08;1.05;;;;;;;19.45;87.56;95806.53;4984989;28;20315;-86
2021/06/24 00:06:54;;;;;;;2.70;1.00;;;;;;;19.48;86.59;95809.50;4977344;28;20202;-84
2021/06/24 00:09:21;;;;;;;2.88;0.98;;;;;;;19.43;85.99;95806.78;4981150;28;20204;-84
2021/06/24 00:11:48;;;;;;;1.60;1.02;;;;;;;19.41;86.57;95802.81;4984946;28;20200;-87
2021/06/24 00:14:18;;;;;;;2.47;1.25;;;;;;;19.42;85.39;95793.94;4991571;28;20223;-87
2021/06/24 00:16:44;;;;;;;1.50;1.10;;;;;;;19.43;87.44;95787.72;4972744;28;20200;-84
2021/06/24 00:19:11;;;;;;;1.52;1.10;;;;;;;19.43;87.63;95785.91;4971883;28;20208;-84
2021/06/24 00:21:39;;;;;;;2.08;1.50;;;;;;;19.48;86.95;95769.53;4979635;28;20946;-85
2021/06/24 00:24:06;;;;;;;2.40;1.40;;;;;;;19.45;86.92;95772.59;4989557;28;20710;-85
2021/06/24 00:26:33;;;;;;;2.70;1.05;;;;;;;19.47;87.64;95771.34;4991399;28;20215;-85
2021/06/24 00:28:59;;;;;;;2.50;1.40;;;;;;;19.46;87.21;95768.94;4990807;28;20200;-84
2021/06/24 00:31:33;;;;;;;1.73;1.17;;;;;;;19.47;85.79;95789.63;4990528;28;20200;-84
2021/06/24 00:34:01;;;;;;;2.05;1.38;;;;;;;19.45;84.99;95794.28;4990892;28;20314;-87
2021/06/24 00:36:28;;;;;;;1.60;1.50;;;;;;;19.48;85.56;95796.44;4990930;28;20286;-85
2021/06/24 00:38:54;;;;;;;1.55;1.40;;;;;;;19.45;85.71;95799.50;4988919;28;20774;-84
2021/06/24 00:41:22;;;;;;;2.75;1.35;;;;;;;19.48;85.00;95795.63;4990230;28;20302;-84
2021/06/24 00:43:51;;;;;;;1.58;1.33;;;;;;;19.49;86.36;95799.84;4990350;28;20223;-84
2021/06/24 00:46:18;;;;;;;2.78;1.52;;;;;;;19.48;85.45;95796.44;4990890;28;20199;-85
2021/06/24 00:48:46;;;;;;;3.70;1.50;;;;;;;19.47;85.87;95789.63;4986833;28;20207;-88
2021/06/24 00:51:12;;;;;;;1.40;1.20;;;;;;;19.46;85.66;95787.22;4985049;28;20192;-87
2021/06/24 00:57:01;;;;;;;1.63;1.50;;;;;;;19.42;85.74;95801.78;4912131;28;20232;-87
2021/06/24 00:59:31;;;;;;;1.70;1.60;;;;;;;19.34;86.38;95805.50;4982940;28;20203;-87
2021/06/24 01:01:58;;;;;;;1.85;1.55;;;;;;;19.26;87.17;95800.59;4982742;28;20230;-86
2021/06/24 01:04:26;;;;;;;2.83;1.75;;;;;;;19.24;86.94;95794.84;4976131;28;20224;-87
2021/06/24 01:06:54;;;;;;;2.78;1.65;;;;;;;19.24;86.81;95794.84;4978113;28;20262;-88
2021/06/24 01:09:22;;;;;;;2.50;1.60;;;;;;;19.21;86.77;95792.69;4984038;28;20208;-87
2021/06/24 01:11:53;;;;;;;2.05;1.50;;;;;;;19.10;87.46;95803.88;4980512;28;20212;-87
2021/06/24 01:14:20;;;;;;;1.70;1.35;;;;;;;19.00;87.71;95799.22;4984989;28;20243;-87
2021/06/24 01:16:56;;;;;;;1.25;1.15;;;;;;;19.04;87.95;95796.97;4983380;28;20199;-87
2021/06/24 01:19:23;;;;;;;2.58;1.38;;;;;;;19.12;87.48;95794.81;4974033;28;20203;-87
2021/06/24 01:21:51;;;;;;;3.25;1.42;;;;;;;19.20;86.54;95796.31;4978566;28;20191;-85
2021/06/24 01:24:20;;;;;;;1.50;1.40;;;;;;;19.23;86.55;95788.03;4982073;28;20229;-87
2021/06/24 01:26:47;;;;;;;3.13;1.45;;;;;;;19.24;85.38;95787.00;4989986;28;20303;-87
2021/06/24 01:29:14;;;;;;;1.98;1.50;;;;;;;19.18;84.96;95796.53;4990213;28;20195;-88
2021/06/24 01:31:44;;;;;;;1.17;1.02;;;;;;;19.03;84.83;95808.41;4989668;28;20199;-87
2021/06/24 01:34:12;;;;;;;2.15;1.20;;;;;;;19.09;84.97;95797.06;4989806;28;20270;-87
2021/06/24 01:36:48;;;;;;;1.20;1.10;;;;;;;19.06;85.05;95800.13;4989912;28;20191;-87
2021/06/24 01:39:16;;;;;;;1.30;1.00;;;;;;;19.02;85.09;95796.38;4989877;28;20293;-87
2021/06/24 01:41:57;;;;;;;2.55;1.25;;;;;;;18.99;85.42;95800.25;4990101;28;20211;-87
2021/06/24 01:44:32;;;;;;;1.33;1.10;;;;;;;18.89;84.72;95805.97;4990015;28;20223;-87
2021/06/24 01:47:00;;;;;;;1.92;1.08;;;;;;;18.93;84.93;95798.50;4990040;28;20203;-85
2021/06/24 01:49:26;;;;;;;2.58;1.00;;;;;;;18.95;85.44;95793.88;4971507;28;20659;-85
2021/06/24 01:52:05;;;;;;;2.38;1.42;;;;;;;18.94;85.47;95797.50;4969403;28;20236;-87
2021/06/24 01:54:38;;;;;;;1.10;1.00;;;;;;;19.05;85.50;95790.72;4970708;28;20228;-88
2021/06/24 01:57:07;;;;;;;1.60;1.05;;;;;;;19.07;84.37;95779.00;4969794;28;20232;-87
2021/06/24 01:59:36;;;;;;;1.23;1.08;;;;;;;19.05;84.13;95768.00;4970230;28;20216;-85
2021/06/24 02:02:06;;;;;;;1.40;1.25;;;;;;;19.01;84.62;95766.09;4969782;28;20204;-84
2021/06/24 02:04:35;;;;;;;1.50;1.15;;;;;;;18.97;84.36;95756.09;4970609;28;20237;-85
2021/06/24 02:07:02;;;;;;;2.40;1.13;;;;;;;18.98;84.16;95756.88;4970435;28;20211;-85
2021/06/24 02:09:33;;;;;;;1.23;1.05;;;;;;;18.89;84.47;95761.63;4970524;28;20219;-85
2021/06/24 02:12:05;;;;;;;1.23;1.00;;;;;;;18.92;83.91;95763.00;4970067;28;20207;-84
2021/06/24 02:14:35;;;;;;;1.00;1.00;;;;;;;18.91;83.29;95771.84;4977906;28;20294;-85
2021/06/24 02:17:02;;;;;;;1.92;1.23;;;;;;;19.01;85.90;95774.72;4995670;28;20203;-83
2021/06/24 02:19:28;;;;;;;3.13;1.65;;;;;;;19.22;89.07;95771.56;4996365;28;20679;-86
2021/06/24 02:21:55;;;;;;;3.30;1.38;;;;;;;19.37;85.69;95768.50;4995552;28;20207;-84
2021/06/24 02:24:21;;;;;;;1.10;1.00;;;;;;;19.45;82.58;95776.00;4995838;28;20235;-85
2021/06/24 02:26:47;;;;;;;3.50;1.45;;;;;;;19.55;85.18;95776.25;4996614;28;20562;-85
2021/06/24 02:29:14;;;;;;;1.85;1.27;;;;;;;19.62;82.04;95781.38;4995627;28;20211;-84
2021/06/24 02:31:45;;;;;;;3.13;1.35;;;;;;;19.66;81.76;95770.22;4995113;28;20286;-83
2021/06/24 02:34:11;;;;;;;1.13;1.02;;;;;;;19.57;79.93;95762.97;4995759;28;20231;-83
2021/06/24 02:36:38;;;;;;;1.20;1.10;;;;;;;19.53;80.35;95756.63;4995306;28;20203;-84
2021/06/24 02:39:05;;;;;;;1.90;1.10;;;;;;;19.59;82.00;95753.88;4995608;28;20208;-84
2021/06/24 02:41:33;;;;;;;1.23;1.13;;;;;;;19.49;80.54;95756.25;4995636;28;20211;-85
2021/06/24 02:44:00;;;;;;;1.40;1.13;;;;;;;19.51;79.98;95751.63;4996609;28;20235;-84
2021/06/24 02:46:26;;;;;;;2.78;1.20;;;;;;;19.53;79.23;95754.00;4995831;28;20203;-84
2021/06/24 02:48:54;;;;;;;2.35;1.00;;;;;;;19.57;79.41;95745.47;4995636;28;20295;-85
2021/06/24 02:51:20;;;;;;;1.30;1.20;;;;;;;19.51;77.87;95746.38;4995992;28;20196;-86
2021/06/24 02:53:47;;;;;;;2.33;1.20;;;;;;;19.50;79.75;95749.22;4995493;28;20219;-84
2021/06/24 02:56:13;;;;;;;1.30;1.20;;;;;;;19.44;79.96;95744.88;4994194;28;20227;-82
2021/06/24 02:58:41;;;;;;;2.38;1.20;;;;;;;19.55;81.17;95754.56;4994783;28;20215;-85
2021/06/24 03:01:08;;;;;;;1.90;1.10;;;;;;;19.61;80.00;95746.63;4995020;28;20702;-84
2021/06/24 03:03:35;;;;;;;2.35;1.33;;;;;;;19.76;80.59;95740.13;4996279;28;20226;-83
2021/06/24 03:06:03;;;;;;;1.33;1.13;;;;;;;19.78;77.96;95738.09;4998303;28;20235;-83
2021/06/24 03:08:29;;;;;;;2.25;1.55;;;;;;;19.81;76.99;95742.84;4998431;28;20261;-84
2021/06/24 03:10:56;;;;;;;1.00;1.00;;;;;;;19.83;77.35;95738.16;4998992;28;20226;-82
2021/06/24 03:13:23;;;;;;;1.10;1.00;;;;;;;19.77;76.70;95726.84;4998646;28;20902;-85
2021/06/24 03:15:49;;;;;;;2.55;1.17;;;;;;;19.73;77.01;95723.09;4998219;28;20200;-83
2021/06/24 03:18:16;;;;;;;2.30;1.00;;;;;;;19.60;76.26;95720.72;4998204;28;20587;-83
2021/06/24 03:20:42;;;;;;;1.83;1.15;;;;;;;19.49;77.82;95722.28;4998400;28;20682;-83
2021/06/24 03:23:11;;;;;;;1.67;1.10;;;;;;;19.61;78.35;95719.72;4997271;28;20224;-84
2021/06/24 03:25:38;;;;;;;1.92;1.17;;;;;;;19.64;76.85;95721.84;4997745;28;20318;-84
2021/06/24 03:28:05;;;;;;;1.20;1.08;;;;;;;19.76;77.48;95714.00;4998297;28;20851;-85
2021/06/24 03:30:31;;;;;;;1.20;1.10;;;;;;;19.79;76.26;95719.56;4997609;28;20217;-84
2021/06/24 03:32:58;;;;;;;3.00;1.20;;;;;;;19.87;76.22;95708.72;4997841;28;20719;-84
2021/06/24 03:35:25;;;;;;;2.45;0.90;;;;;;;19.91;75.87;95715.09;4997501;28;20513;-85
2021/06/24 03:37:51;;;;;;;1.80;1.15;;;;;;;19.89;75.31;95722.38;4996908;28;20778;-84
2021/06/24 03:40:21;;;;;;;1.27;1.00;;;;;;;19.80;74.16;95710.69;4997532;28;20204;-85
2021/06/24 03:42:47;;;;;;;1.40;0.90;;;;;;;19.75;77.47;95712.41;4996523;28;20223;-83
2021/06/24 03:45:16;;;;;;;3.00;1.10;;;;;;;19.89;77.59;95714.53;4997039;28;20219;-85
2021/06/24 03:47:42;;;;;;;1.20;1.10;;;;;;;19.93;73.78;95710.44;4997556;28;20195;-84
2021/06/24 03:50:11;;;;;;;2.05;1.20;;;;;;;19.84;74.36;95711.81;4997281;28;20227;-85
2021/06/24 03:52:38;;;;;;;3.47;1.40;;;;;;;19.78;76.25;95715.34;4997045;28;20238;-84
2021/06/24 03:55:06;;;;;;;3.40;1.30;;;;;;;19.73;77.00;95717.88;4994125;28;20192;-85
2021/06/24 03:57:34;;;;;;;1.15;1.02;;;;;;;19.71;74.26;95711.28;4989846;28;20223;-84
2021/06/24 04:00:01;;;;;;;2.42;1.08;;;;;;;19.73;74.59;95717.88;4997775;28;20326;-84
2021/06/24 04:02:27;;;;;;;1.42;1.08;;;;;;;19.59;74.90;95717.31;4997337;28;20219;-85
2021/06/24 04:04:54;;;;;;;2.72;1.20;;;;;;;19.65;76.09;95716.38;4997388;28;20710;-84
2021/06/24 04:07:22;;;;;;;1.45;1.10;;;;;;;19.68;76.49;95712.53;4997869;28;20298;-84
2021/06/24 04:09:49;;;;;;;0.88;0.88;;;;;;;19.79;75.54;95716.16;4994422;28;20214;-83
2021/06/24 04:12:15;;;;;;;1.17;1.08;;;;;;;19.82;74.10;95708.63;4989241;28;20191;-85
2021/06/24 04:14:43;;;;;;;1.27;1.08;;;;;;;19.93;75.13;95715.66;4996592;28;20664;-85
2021/06/24 04:17:10;;;;;;;1.17;1.10;;;;;;;20.07;75.03;95716.19;4997550;28;20207;-84
2021/06/24 04:19:36;;;;;;;3.08;1.20;;;;;;;20.15;74.43;95713.22;4984935;28;20205;-84
2021/06/24 04:22:03;;;;;;;1.02;0.98;;;;;;;20.23;74.98;95712.81;4989822;28;20663;-85
2021/06/24 04:24:30;;;;;;;0.95;0.95;;;;;;;20.20;73.35;95720.34;4997617;28;20605;-85
2021/06/24 04:26:56;;;;;;;1.67;1.10;;;;;;;20.20;73.35;95723.78;4994418;28;20201;-84
2021/06/24 04:29:23;;;;;;;1.10;1.00;;;;;;;20.27;74.05;95729.63;4978077;28;20204;-84
2021/06/24 04:31:53;;;;;;;1.17;1.10;;;;;;;20.37;73.60;95726.47;4977436;28;20549;-86
2021/06/24 04:34:20;;;;;;;1.60;1.20;;;;;;;20.37;73.93;95721.22;4980482;28;20232;-84
2021/06/24 04:36:46;;;;;;;1.35;1.08;;;;;;;20.32;74.41;95721.09;4989274;28;20223;-82
2021/06/24 04:39:13;;;;;;;1.40;1.02;;;;;;;20.36;73.92;95717.00;4991098;28;20389;-84
2021/06/24 04:41:40;;;;;;;1.10;1.00;;;;;;;20.35;73.93;95721.44;5004574;28;20201;-84
2021/06/24 04:44:07;;;;;;;1.13;1.00;;;;;;;20.41;73.76;95713.69;4997119;28;20226;-84
2021/06/24 04:46:33;;;;;;;2.88;1.20;;;;;;;20.49;73.25;95708.88;4987318;28;20215;-86
2021/06/24 04:49:01;;;;;;;1.10;1.00;;;;;;;20.60;73.26;95715.06;4998852;28;20635;-83
2021/06/24 04:51:28;;;;;;;1.00;1.00;;;;;;;20.62;72.01;95715.63;4982908;28;20204;-83
2021/06/24 04:53:54;;;;;;;1.63;1.00;;;;;;;20.69;72.35;95709.22;4987917;28;20228;-84
2021/06/24 04:56:21;;;;;;;1.08;1.00;;;;;;;20.81;72.20;95709.16;4995849;28;20234;-84
2021/06/24 04:58:47;;;;;;;0.88;0.88;;;;;;;20.89;70.75;95703.53;4999098;28;20210;-85
2021/06/24 05:01:14;;;;;;;1.05;0.98;;;;;;;21.00;70.29;95701.84;5004795;28;20286;-84
2021/06/24 05:03:42;;;;;;;1.05;0.93;;;;;;;21.06;70.02;95700.91;5016183;28;20918;-85
2021/06/24 05:06:15;;;;;;;1.15;1.05;;;;;;;21.14;69.93;95699.72;5016025;28;20233;-85
2021/06/24 05:08:41;;;;;;;1.20;1.02;;;;;;;21.19;68.93;95699.78;5016036;28;20207;-84
2021/06/24 05:11:08;;;;;;;1.40;1.30;;;;;;;21.24;69.34;95699.88;5011208;28;20198;-84
2021/06/24 05:13:35;;;;;;;1.10;1.00;;;;;;;21.28;68.72;95701.78;4994678;28;20278;-83
2021/06/24 05:16:02;;;;;;;1.08;0.98;;;;;;;21.17;69.01;95701.84;4993272;28;20244;-84
2021/06/24 05:18:30;;;;;;;1.10;1.00;;;;;;;21.23;68.97;95703.53;4988987;28;20618;-84
2021/06/24 05:20:59;;;;;;;2.55;1.00;;;;;;;21.24;68.18;95695.44;4981428;28;20196;-83
2021/06/24 05:23:27;;;;;;;2.28;0.93;;;;;;;21.28;69.11;95693.13;4976875;28;20220;-85
2021/06/24 05:25:54;;;;;;;1.58;0.93;;;;;;;21.30;70.04;95701.56;4988398;28;20223;-85
2021/06/24 05:28:20;;;;;;;3.53;1.10;;;;;;;21.35;69.85;95697.19;4995147;28;20695;-82
2021/06/24 05:30:48;;;;;;;2.22;0.90;;;;;;;21.31;68.57;95697.91;4995514;28;20663;-85
2021/06/24 05:33:15;;;;;;;1.02;0.90;;;;;;;21.33;69.41;95698.47;4992548;28;20611;-83
2021/06/24 05:35:42;;;;;;;0.90;0.90;;;;;;;21.30;69.16;95694.50;4976379;28;20228;-83
2021/06/24 05:38:11;;;;;;;1.85;1.20;;;;;;;21.40;68.45;95691.19;4975532;28;20211;-81
2021/06/24 05:40:39;;;;;;;2.58;1.15;;;;;;;21.43;68.42;95697.78;4983679;28;20793;-84
2021/06/24 05:43:06;;;;;;;2.15;0.98;;;;;;;21.46;67.33;95694.69;4979063;28;20314;-83
2021/06/24 05:45:33;;;;;;;2.45;0.93;;;;;;;21.48;68.58;95695.25;4977289;28;20238;-84
2021/06/24 05:48:00;;;;;;;2.63;1.00;;;;;;;21.50;68.45;95690.56;4976738;28;20223;-86
2021/06/24 05:50:29;;;;;;;13.27;11.15;;;;;;;21.57;68.32;95691.16;4980366;28;20206;-84
2021/06/24 05:52:58;;;;;;;5.63;4.10;;;;;;;21.53;67.88;95696.13;4994549;28;20714;-84
2021/06/24 05:58:10;;;;;;;3.90;2.13;;;;;;;21.27;69.49;95702.81;4994204;28;20199;-84
2021/06/24 06:00:40;;;;;;;1.50;1.40;;;;;;;21.24;69.34;95697.25;4994397;28;20203;-84
2021/06/24 06:03:10;;;;;;;1.45;1.35;;;;;;;21.25;69.32;95698.84;4993567;28;20223;-84
2021/06/24 06:05:40;;;;;;;1.58;1.13;;;;;;;21.10;69.43;95695.97;4994927;28;20239;-82
2021/06/24 06:08:08;;;;;;;1.77;1.17;;;;;;;21.22;70.13;95696.72;4995062;28;20203;-85
2021/06/24 06:10:36;;;;;;;1.95;1.48;;;;;;;21.35;69.97;95691.16;4994620;28;20210;-86
2021/06/24 06:13:05;;;;;;;1.70;1.20;;;;;;;21.41;70.28;95689.38;4994195;28;20231;-83
2021/06/24 06:15:41;;;;;;;2.53;1.40;;;;;;;21.52;70.31;95685.88;4995633;28;20286;-85
2021/06/24 06:24:32;;;;;;;;;;;;;;;;;;;;;
2021/06/24 06:27:01;;;;;;;0.98;0.98;;;;;;;21.65;68.91;95685.50;4910866;29;20822;-84
2021/06/24 06:29:34;;;;;;;2.55;1.40;;;;;;;21.65;70.80;95691.53;4916614;29;20197;-84
2021/06/24 06:32:08;;;;;;;15.88;14.38;;;;;;;21.55;71.59;95688.00;4991428;28;20718;-83
2021/06/24 06:34:38;;;;;;;8.10;7.40;;;;;;;21.61;70.37;95700.91;4981256;28;20664;-84
2021/06/24 06:37:07;;;;;;;3.20;2.05;;;;;;;21.67;70.24;95694.72;4973402;28;20684;-84
2021/06/24 06:39:34;;;;;;;2.28;1.70;;;;;;;21.85;70.16;95688.38;4978015;28;20819;-85
2021/06/24 06:42:04;;;;;;;5.22;1.65;;;;;;;;;;4977948;28;20204;-85
2021/06/24 06:44:34;;;;;;;1.77;1.52;;;;;;;22.04;69.28;95686.25;4980373;28;20222;-83
2021/06/24 06:47:04;;;;;;;2.13;1.52;;;;;;;21.87;69.24;95690.75;4997222;28;20218;-85
2021/06/24 06:49:35;;;;;;;2.22;1.50;;;;;;;21.85;69.31;95693.63;4997969;28;20277;-85
2021/06/24 06:52:07;;;;;;;2.53;1.70;;;;;;;21.74;69.29;95691.13;4998010;28;20203;-85
2021/06/24 06:54:37;;;;;;;1.80;1.70;;;;;;;21.70;70.57;95690.81;4998841;28;20727;-85
2021/06/24 06:57:09;;;;;;;2.75;1.60;;;;;;;21.60;70.59;95695.91;4993789;28;20227;-84
2021/06/24 06:59:36;;;;;;;2.72;1.42;;;;;;;21.45;70.92;95698.34;4989557;28;20203;-86
2021/06/24 07:02:03;;;;;;;1.50;1.40;;;;;;;21.39;70.97;95702.72;4978038;28;20204;-82
2021/06/24 07:04:29;;;;;;;2.35;1.65;;;;;;;21.46;70.22;95695.47;5017951;28;20318;-85
2021/06/24 07:06:57;;;;;;;1.60;1.50;;;;;;;21.57;70.02;95694.56;4997617;28;20219;-83
2021/06/24 07:09:24;;;;;;;2.13;1.90;;;;;;;21.60;68.14;95691.47;4987163;28;20201;-84
2021/06/24 07:11:50;;;;;;;1.52;1.42;;;;;;;21.60;68.35;95696.72;4990716;28;20263;-82
2021/06/24 07:14:21;;;;;;;1.67;1.58;;;;;;;21.65;68.52;95688.13;4991914;28;20220;-85
2021/06/24 07:16:47;;;;;;;1.40;1.30;;;;;;;21.70;68.63;95686.38;4998297;28;20218;-83
2021/06/24 07:19:14;;;;;;;1.40;1.30;;;;;;;21.70;67.98;95682.97;4990961;28;20192;-84
2021/06/24 07:21:41;;;;;;;1.75;1.40;;;;;;;21.72;67.88;95696.63;4986388;28;20202;-85
2021/06/24 07:24:11;;;;;;;6.15;4.78;;;;;;;21.78;68.19;95692.19;4984498;28;20220;-83
2021/06/24 07:26:40;;;;;;;16.88;15.27;;;;;;;21.92;68.29;95688.19;4991451;28;20357;-82
2021/06/24 07:29:07;;;;;;;5.07;3.90;;;;;;;22.04;67.57;95689.69;4979356;28;20200;-86
2021/06/24 07:31:34;;;;;;;2.40;2.20;;;;;;;22.03;67.56;95698.56;4996962;28;20221;-85
2021/06/24 07:34:00;;;;;;;1.33;1.13;;;;;;;22.02;64.94;95689.13;4989526;28;20220;-86
2021/06/24 07:36:27;;;;;;;4.50;1.60;;;;;;;22.12;66.28;95687.66;4976620;28;20208;-85
2021/06/24 07:38:54;;;;;;;1.77;1.40;;;;;;;22.11;65.09;95691.31;4977440;28;20291;-85
2021/06/24 07:41:25;;;;;;;1.38;1.27;;;;;;;22.10;65.88;95689.75;4976021;28;20200;-83
2021/06/24 07:43:52;;;;;;;1.40;1.30;;;;;;;22.28;66.41;95687.56;4993470;28;20234;-85
2021/06/24 07:46:20;;;;;;;1.50;1.20;;;;;;;22.30;66.10;95696.00;4995933;28;20231;-85
2021/06/24 07:48:48;;;;;;;1.33;1.23;;;;;;;22.22;66.09;95690.38;4995648;28;20200;-85
2021/06/24 07:51:14;;;;;;;1.85;1.25;;;;;;;22.37;66.63;95690.53;4995170;28;20209;-83
2021/06/24 07:53:42;;;;;;;1.52;1.42;;;;;;;22.52;65.51;95693.28;4995908;28;20220;-84
2021/06/24 07:56:09;;;;;;;2.08;1.50;;;;;;;22.68;64.63;95691.63;4995265;28;20235;-85
2021/06/24 07:58:38;;;;;;;1.23;1.13;;;;;;;22.85;62.94;95679.19;4996100;28;20227;-85
2021/06/24 08:01:05;;;;;;;1.40;1.30;;;;;;;23.05;63.53;95681.97;4995187;28;20272;-85
2021/06/24 08:03:31;;;;;;;1.52;1.20;;;;;;;23.12;63.58;95678.31;4995597;28;20255;-85
2021/06/24 08:05:58;;;;;;;1.50;1.40;;;;;;;23.05;65.29;95675.91;4995955;28;20224;-83
2021/06/24 08:08:25;;;;;;;4.95;2.60;;;;;;;22.96;66.00;95677.41;4995043;28;20207;-84
2021/06/24 08:10:52;;;;;;;1.50;1.40;;;;;;;22.94;63.05;95677.66;4995398;28;20297;-84
2021/06/24 08:13:18;;;;;;;2.00;1.42;;;;;;;22.96;63.25;95680.84;4995994;28;20243;-84
2021/06/24 08:15:46;;;;;;;1.55;1.42;;;;;;;22.90;62.33;95681.84;4997706;28;20286;-81
2021/06/24 08:18:15;;;;;;;1.60;1.30;;;;;;;22.79;62.00;95682.81;4995308;28;20207;-82
2021/06/24 08:20:42;;;;;;;1.83;1.30;;;;;;;22.68;62.74;95681.13;4995016;28;20207;-84
2021/06/24 08:23:10;;;;;;;1.58;1.48;;;;;;;22.69;61.52;95682.72;4975555;28;20265;-84
2021/06/24 08:25:36;;;;;;;2.80;1.55;;;;;;;22.71;61.82;95670.09;4989794;28;20330;-85
2021/06/24 08:28:03;;;;;;;1.40;1.35;;;;;;;22.95;61.82;95670.56;4997626;28;20215;-84
2021/06/24 08:30:30;;;;;;;1.70;1.55;;;;;;;23.14;60.74;95677.00;4995732;28;20242;-83
2021/06/24 08:32:59;;;;;;;1.60;1.50;;;;;;;23.27;61.83;95673.19;4995406;28;20709;-85
2021/06/24 08:35:26;;;;;;;2.42;1.50;;;;;;;23.51;62.31;95678.81;4994048;28;20286;-84
2021/06/24 08:37:53;;;;;;;2.35;1.50;;;;;;;23.65;61.89;95677.34;4980599;28;20207;-84
2021/06/24 08:40:20;;;;;;;1.40;1.30;;;;;;;23.58;61.71;95671.53;4994021;28;20215;-85
2021/06/24 08:42:49;;;;;;;2.55;1.52;;;;;;;23.33;60.42;95674.78;4997497;28;20227;-85
2021/06/24 08:45:19;;;;;;;2.00;1.50;;;;;;;23.19;61.70;95668.38;4996551;28;20278;-84
2021/06/24 08:47:47;;;;;;;2.15;1.45;;;;;;;22.99;62.45;95671.66;4997508;28;20698;-84
2021/06/24 08:50:27;;;;;;;1.50;1.40;;;;;;;23.29;62.23;95678.94;4997786;28;20411;-88
2021/06/24 08:52:55;;;;;;;1.55;1.45;;;;;;;23.46;61.29;95684.84;4996324;28;20278;-86
2021/06/24 08:55:22;;;;;;;1.63;1.25;;;;;;;23.61;59.54;95679.69;4997728;28;20207;-85
2021/06/24 08:57:50;;;;;;;13.00;11.82;;;;;;;23.60;58.44;95679.94;4998013;28;20203;-85
2021/06/24 09:00:18;;;;;;;6.38;5.72;;;;;;;23.77;57.00;95675.28;4996805;28;20235;-85
2021/06/24 09:02:47;;;;;;;2.30;2.08;;;;;;;24.03;56.90;95678.81;4996879;28;20650;-83
2021/06/24 09:05:16;;;;;;;1.98;1.63;;;;;;;24.28;56.82;95672.81;4998313;28;20286;-85
2021/06/24 09:07:55;;;;;;;1.55;1.40;;;;;;;24.24;58.72;95677.84;4996189;28;20254;-85
2021/06/24 09:10:25;;;;;;;1.50;1.35;;;;;;;24.12;58.86;95669.34;4996649;28;20203;-85
2021/06/24 09:12:55;;;;;;;2.08;1.20;;;;;;;24.16;58.20;95667.00;4985538;28;20255;-85
2021/06/24 09:15:25;;;;;;;1.40;1.30;;;;;;;24.07;58.82;95671.97;4984232;28;20288;-85
2021/06/24 09:17:51;;;;;;;2.97;1.92;;;;;;;23.84;59.15;95669.81;4988387;28;20207;-85
2021/06/24 09:20:36;;;;;;;1.65;1.55;;;;;;;24.11;58.32;95662.50;4995292;28;20756;-85
2021/06/24 09:23:16;;;;;;;2.53;1.40;;;;;;;24.38;58.81;95664.97;4974000;28;20696;-85
2021/06/24 09:25:45;;;;;;;1.98;1.60;;;;;;;24.32;58.27;95669.41;4976667;28;20196;-84
2021/06/24 09:28:12;;;;;;;1.50;1.40;;;;;;;24.12;58.85;95666.72;4978319;28;20228;-85
2021/06/24 09:30:41;;;;;;;4.70;2.70;;;;;;;24.00;59.19;95664.31;4977780;28;20294;-84
2021/06/24 09:33:10;;;;;;;2.78;1.90;;;;;;;23.99;58.90;95673.28;4974563;28;20232;-86
2021/06/24 09:35:38;;;;;;;1.70;1.60;;;;;;;24.11;58.97;95671.19;4975095;28;20212;-86
2021/06/24 09:38:08;;;;;;;2.00;1.58;;;;;;;24.19;55.43;95662.00;4991148;28;20204;-84
2021/06/24 09:40:43;;;;;;;1.60;1.50;;;;;;;24.42;56.12;95668.66;4992645;28;20215;-86
2021/06/24 09:43:15;;;;;;;1.20;1.20;;;;;;;24.29;52.56;95671.78;4994059;28;20258;-85
2021/06/24 09:45:59;;;;;;;1.70;1.58;;;;;;;24.44;52.68;95667.31;4977725;28;20255;-83
2021/06/24 09:48:33;;;;;;;3.20;1.30;;;;;;;24.62;54.13;95660.00;4978192;28;20210;-85
2021/06/24 09:51:16;;;;;;;1.60;1.45;;;;;;;24.79;54.57;95661.31;4976532;28;20196;-85
2021/06/24 09:54:03;;;;;;;1.67;1.30;;;;;;;24.74;56.29;95663.94;4991013;28;20223;-85
2021/06/24 09:56:38;;;;;;;1.73;1.50;;;;;;;24.58;57.33;95656.31;4989876;28;20247;-84
2021/06/24 09:59:06;;;;;;;4.65;4.25;;;;;;;24.58;58.75;95656.31;4996886;28;20203;-85
2021/06/24 10:01:38;;;;;;;3.83;3.53;;;;;;;24.40;54.80;95653.13;4993025;28;20752;-86
2021/06/24 10:04:18;;;;;;;3.03;2.83;;;;;;;24.60;57.16;95654.19;4987652;28;20741;-86
2021/06/24 10:06:46;;;;;;;2.83;2.63;;;;;;;24.82;56.69;95657.38;4994881;28;20444;-85
2021/06/24 10:09:18;;;;;;;2.30;2.10;;;;;;;25.06;54.71;95662.88;4994061;28;20862;-85
2021/06/24 10:20:43;;;;;;;1.70;1.60;;;;;;;25.62;51.86;95668.84;5348316;23;20240;-87
2021/06/24 10:34:04;;;;;;;1.90;1.65;;;;;;;25.57;52.53;95682.03;4780974;30;20906;-87
2021/06/24 10:36:31;;;;;;;2.10;1.52;;;;;;;25.93;52.17;95680.09;4838663;29;20204;-85
2021/06/24 10:38:58;;;;;;;2.28;1.50;;;;;;;26.29;52.83;95685.19;4905845;28;20204;-84
2021/06/24 10:41:25;;;;;;;2.65;1.35;;;;;;;26.35;51.81;95687.56;4971280;28;20204;-82
2021/06/24 10:43:53;;;;;;;1.90;1.40;;;;;;;26.01;53.09;95684.00;4956828;28;20217;-83
2021/06/24 10:46:22;;;;;;;1.55;1.45;;;;;;;25.68;54.08;95674.91;4952390;29;20584;-83
2021/06/24 10:48:58;;;;;;;1.70;1.60;;;;;;;25.68;55.81;95680.19;4953075;29;20216;-89
2021/06/24 10:51:38;;;;;;;1.50;1.40;;;;;;;25.67;53.78;95674.13;4949228;29;20300;-89
2021/06/24 10:54:05;;;;;;;1.45;1.35;;;;;;;25.83;54.10;95682.75;4952109;29;20232;-84
2021/06/24 10:56:48;;;;;;;1.60;1.50;;;;;;;25.73;53.65;95683.59;4954411;28;20232;-84
2021/06/24 10:59:32;;;;;;;1.35;1.30;;;;;;;25.52;54.33;95681.25;4953111;28;20219;-84
2021/06/24 11:02:10;;;;;;;1.25;1.15;;;;;;;25.41;52.44;95673.34;4970059;28;20255;-84
2021/06/24 11:04:44;;;;;;;1.20;1.10;;;;;;;25.29;53.39;95672.06;4970626;28;20203;-85
2021/06/24 11:07:23;;;;;;;2.17;1.20;;;;;;;25.18;54.66;95686.34;4969421;28;20379;-85
2021/06/24 11:10:25;;;;;;;2.20;1.30;;;;;;;25.01;56.74;95705.06;4969655;28;20226;-84
2021/06/24 11:13:05;;;;;;;1.60;1.50;;;;;;;24.83;54.45;95695.78;4969634;28;20227;-85
2021/06/24 11:15:48;;;;;;;1.60;1.50;;;;;;;24.66;54.75;95697.91;4966121;28;20204;-84
2021/06/24 11:18:48;;;;;;;1.60;1.50;;;;;;;24.45;56.04;95702.34;4969839;28;20307;-85
2021/06/24 11:21:21;;;;;;;1.77;1.35;;;;;;;24.34;56.67;95704.16;4964519;28;20216;-84
2021/06/24 11:23:52;;;;;;;2.08;1.20;;;;;;;24.46;57.58;95701.28;4949878;28;20220;-84
2021/06/24 11:26:35;;;;;;;1.70;1.60;;;;;;;24.77;55.75;95702.13;4968957;28;20203;-85
2021/06/24 11:29:18;;;;;;;1.50;1.40;;;;;;;24.98;54.96;95698.47;4972582;28;20222;-83
2021/06/24 11:31:50;;;;;;;1.55;1.45;;;;;;;25.18;54.84;95681.06;4972321;28;20196;-84
2021/06/24 11:34:23;;;;;;;1.23;1.23;;;;;;;25.21;54.60;95678.66;4973718;28;20602;-84
2021/06/24 11:36:50;;;;;;;1.63;1.50;;;;;;;25.20;55.79;95674.47;4966339;28;20235;-86
2021/06/24 11:39:38;;;;;;;22.70;20.65;;;;;;;25.01;56.05;95686.63;4969089;28;20213;-86
2021/06/24 11:42:29;;;;;;;7.28;6.68;;;;;;;25.02;56.14;95673.16;4970741;28;20212;-85
2021/06/24 11:44:57;;;;;;;4.80;3.22;;;;;;;25.15;55.50;95673.69;4971573;28;20211;-85
2021/06/24 11:47:25;;;;;;;2.40;2.20;;;;;;;25.34;54.08;95672.06;4971070;28;20220;-85
2021/06/24 12:04:10;;;;;;;2.40;2.20;;;;;;;24.70;58.07;95668.16;4951533;29;20723;-85
2021/06/24 12:06:59;;;;;;;2.20;2.00;;;;;;;24.66;58.33;95671.56;4951910;28;20209;-87
2021/06/24 12:09:46;;;;;;;8.02;7.32;;;;;;;24.64;57.96;95682.34;4956536;28;20200;-86
2021/06/24 12:12:24;;;;;;;4.78;4.25;;;;;;;24.83;57.36;95673.94;4969326;28;20204;-86
2021/06/24 12:15:01;;;;;;;2.92;2.72;;;;;;;24.74;57.89;95656.03;4969939;28;20196;-86
2021/06/24 12:17:38;;;;;;;3.05;2.10;;;;;;;24.72;57.61;95665.25;4971906;28;20204;-86
2021/06/24 12:20:12;;;;;;;1.80;1.70;;;;;;;24.70;57.78;95668.16;4970179;28;20204;-86
2021/06/24 12:22:52;;;;;;;2.92;2.10;;;;;;;24.79;57.05;95673.69;4966481;28;20261;-85
2021/06/24 12:25:46;;;;;;;2.13;1.92;;;;;;;25.31;55.84;95669.97;4972134;28;20220;-86
2021/06/24 12:28:35;;;;;;;4.05;2.00;;;;;;;25.60;54.94;95672.78;4970706;28;20227;-85
2021/06/24 12:31:02;;;;;;;1.90;1.80;;;;;;;25.68;53.39;95665.16;4968932;28;20211;-85
2021/06/24 12:33:30;;;;;;;2.28;2.08;;;;;;;25.88;52.70;95674.03;4970695;28;20231;-85